createdAt,value
2023-03-29T00:00:49.550Z,100996.19
2023-03-29T00:07:05.084Z,100983.06
2023-03-29T00:09:33.025Z,100971.66
2023-03-29T00:12:01.487Z,100964.75
2023-03-29T00:14:30.358Z,100957.25
2023-03-29T00:16:57.558Z,100957.34
2023-03-29T00:19:23.939Z,100956.59
2023-03-29T00:21:50.322Z,100954.69
2023-03-29T00:24:16.654Z,100952.13
2023-03-29T00:26:43.024Z,100961.72
2023-03-29T00:29:09.393Z,100953.00
2023-03-29T00:31:35.891Z,100954.78
2023-03-29T00:34:02.316Z,100961.84
2023-03-29T00:36:28.744Z,100949.47
2023-03-29T00:38:56.536Z,100957.47
2023-03-29T00:41:22.861Z,100950.44
2023-03-29T00:44:00.613Z,100947.00
2023-03-29T00:46:29.702Z,100942.59
2023-03-29T00:49:06.992Z,100947.19
2023-03-29T00:51:37.253Z,100938.44
2023-03-29T00:54:06.829Z,100942.06
2023-03-29T00:56:38.465Z,100935.13
2023-03-29T00:59:18.604Z,100936.06
2023-03-29T01:01:56.840Z,100941.59
2023-03-29T01:04:32.835Z,100924.28
2023-03-29T01:07:05.038Z,100923.91
2023-03-29T01:09:35.391Z,100918.09
2023-03-29T01:12:08.863Z,100918.00
2023-03-29T01:14:47.968Z,100905.00
2023-03-29T01:17:15.904Z,100902.13
2023-03-29T01:19:50.023Z,100918.94
2023-03-29T01:22:26.035Z,100927.78
2023-03-29T01:25:05.165Z,100923.63
2023-03-29T01:27:43.634Z,100913.34
2023-03-29T01:30:15.989Z,100913.44
2023-03-29T01:32:50.389Z,100905.56
2023-03-29T01:35:24.836Z,100899.94
2023-03-29T01:38:09.733Z,100892.91
2023-03-29T01:40:36.249Z,100891.84
2023-03-29T01:43:11.450Z,100882.25
2023-03-29T01:45:49.677Z,100882.16
2023-03-29T01:48:18.759Z,100873.63
2023-03-29T01:50:55.434Z,100881.50
2023-03-29T01:53:30.945Z,100875.22
2023-03-29T01:56:02.299Z,100875.22
2023-03-29T01:58:33.927Z,100879.22
2023-03-29T02:01:05.598Z,100883.22
2023-03-29T02:03:34.141Z,100875.34
2023-03-29T02:06:03.032Z,100873.22
2023-03-29T02:08:29.629Z,100866.50
2023-03-29T02:10:56.079Z,100866.97
2023-03-29T02:13:22.471Z,100866.97
2023-03-29T02:15:49.107Z,100867.03
2023-03-29T02:18:17.620Z,100865.44
2023-03-29T02:20:49.689Z,100854.13
2023-03-29T02:23:34.001Z,100854.22
2023-03-29T02:26:02.001Z,100849.00
2023-03-29T02:28:30.076Z,100840.16
2023-03-29T02:31:09.307Z,100838.16
2023-03-29T02:33:52.988Z,100843.28
2023-03-29T02:36:28.095Z,100838.81
2023-03-29T02:38:55.890Z,100833.38
2023-03-29T02:41:23.700Z,100837.09
2023-03-29T02:43:51.071Z,100825.59
2023-03-29T02:46:18.613Z,100819.31
2023-03-29T02:48:46.810Z,100816.66
2023-03-29T02:51:20.275Z,100816.88
2023-03-29T02:53:56.262Z,100810.69
2023-03-29T02:56:23.195Z,100807.81
2023-03-29T02:58:49.749Z,100818.59
2023-03-29T03:01:18.330Z,100822.56
2023-03-29T03:03:45.129Z,100815.72
2023-03-29T03:06:13.427Z,100815.94
2023-03-29T03:08:40.015Z,100826.38
2023-03-29T03:11:07.045Z,100809.75
2023-03-29T03:13:33.407Z,100805.50
2023-03-29T03:16:01.135Z,100808.91
2023-03-29T03:18:27.702Z,100803.56
2023-03-29T03:20:55.365Z,100813.47
2023-03-29T03:23:21.667Z,100805.50
2023-03-29T03:25:49.091Z,100807.19
2023-03-29T03:28:15.585Z,100794.47
2023-03-29T03:30:42.070Z,100798.94
2023-03-29T03:33:08.993Z,100796.19
2023-03-29T03:35:35.621Z,100789.06
2023-03-29T03:38:01.986Z,100793.41
2023-03-29T03:40:28.514Z,100795.22
2023-03-29T03:42:54.876Z,100799.78
2023-03-29T03:45:21.565Z,100797.44
2023-03-29T03:47:48.043Z,100790.47
2023-03-29T03:50:14.517Z,100788.13
2023-03-29T03:52:40.891Z,100789.72
2023-03-29T03:55:08.186Z,100780.16
2023-03-29T03:57:37.390Z,100782.91
2023-03-29T04:00:19.164Z,100783.94
2023-03-29T04:02:47.166Z,100771.31
2023-03-29T04:05:14.240Z,100782.06
2023-03-29T04:07:41.146Z,100781.84
2023-03-29T04:10:09.143Z,100775.00
2023-03-29T04:12:36.007Z,100777.59
2023-03-29T04:15:03.761Z,100783.94
2023-03-29T04:17:30.380Z,100779.47
2023-03-29T04:19:57.520Z,100784.41
2023-03-29T04:22:27.893Z,100784.13
2023-03-29T04:24:54.217Z,100785.75
2023-03-29T04:27:20.620Z,100787.44
2023-03-29T04:29:47.586Z,100785.63
2023-03-29T04:32:13.939Z,100791.91
2023-03-29T04:34:40.432Z,100789.63
2023-03-29T04:37:10.611Z,100780.81
2023-03-29T04:39:37.814Z,100780.63
2023-03-29T04:42:05.148Z,100778.88
2023-03-29T04:44:34.850Z,100774.34
2023-03-29T04:47:01.387Z,100765.53
2023-03-29T04:49:27.810Z,100775.00
2023-03-29T04:51:54.450Z,100768.94
2023-03-29T04:54:21.254Z,100769.31
2023-03-29T04:56:47.669Z,100773.56
2023-03-29T04:59:14.046Z,100763.13
2023-03-29T05:01:40.428Z,100748.13
2023-03-29T05:04:06.833Z,100771.31
2023-03-29T05:06:33.177Z,100760.47
2023-03-29T05:09:01.104Z,100759.34
2023-03-29T05:11:27.623Z,100766.16
2023-03-29T05:13:57.046Z,100768.63
2023-03-29T05:16:24.520Z,100774.53
2023-03-29T05:18:51.616Z,100766.81
2023-03-29T05:21:18.358Z,100771.38
2023-03-29T05:23:44.848Z,100779.94
2023-03-29T05:26:14.484Z,100774.53
2023-03-29T05:28:41.758Z,100764.09
2023-03-29T05:31:08.339Z,100767.97
2023-03-29T05:33:35.392Z,100776.69
2023-03-29T05:36:05.895Z,100780.84
2023-03-29T05:38:34.947Z,100786.09
2023-03-29T05:41:01.364Z,100776.22
2023-03-29T05:43:27.870Z,100779.72
2023-03-29T05:45:55.642Z,100780.38
2023-03-29T05:48:23.670Z,100780.09
2023-03-29T05:50:52.134Z,100780.09
2023-03-29T05:53:21.160Z,100786.06
2023-03-29T05:55:47.726Z,100788.44
2023-03-29T05:58:15.567Z,100798.13
2023-03-29T06:00:42.745Z,100781.19
2023-03-29T06:05:48.348Z,100775.03
2023-03-29T06:08:16.798Z,100786.69
2023-03-29T06:10:43.603Z,100787.75
2023-03-29T06:13:10.795Z,100790.97
2023-03-29T06:15:37.479Z,100791.50
2023-03-29T06:18:04.560Z,100792.47
2023-03-29T06:20:31.673Z,100788.00
2023-03-29T06:22:58.430Z,100796.72
2023-03-29T06:25:24.917Z,100793.22
2023-03-29T06:27:52.162Z,100786.00
2023-03-29T06:30:19.232Z,100791.13
2023-03-29T06:32:46.169Z,100807.00
2023-03-29T06:35:12.541Z,100789.50
2023-03-29T06:37:49.343Z,100794.31
2023-03-29T06:40:21.185Z,100795.63
2023-03-29T06:42:48.388Z,100787.63
2023-03-29T06:45:14.962Z,100789.16
2023-03-29T06:47:41.940Z,100784.00
2023-03-29T06:50:09.186Z,100796.72
2023-03-29T06:52:35.690Z,100790.53
2023-03-29T06:55:02.902Z,100788.72
2023-03-29T06:57:29.242Z,100793.78
2023-03-29T06:59:55.683Z,100785.91
2023-03-29T07:02:22.584Z,100791.59
2023-03-29T07:08:02.131Z,100794.16
2023-03-29T07:10:48.884Z,100805.16
2023-03-29T07:13:15.546Z,100808.25
2023-03-29T07:15:43.531Z,100796.63
2023-03-29T07:18:10.484Z,100805.81
2023-03-29T07:20:38.767Z,100805.41
2023-03-29T07:23:06.363Z,100805.97
2023-03-29T07:25:33.844Z,100808.28
2023-03-29T07:28:00.253Z,100798.06
2023-03-29T07:30:31.670Z,100801.28
2023-03-29T07:32:59.384Z,100807.44
2023-03-29T07:35:26.985Z,100818.78
2023-03-29T07:37:55.473Z,100819.28
2023-03-29T07:40:23.515Z,100822.69
2023-03-29T07:42:54.898Z,100821.84
2023-03-29T07:45:26.630Z,100818.75
2023-03-29T07:47:56.222Z,100820.47
2023-03-29T07:50:23.282Z,100817.22
2023-03-29T07:52:50.039Z,100830.13
2023-03-29T07:55:16.934Z,100836.53
2023-03-29T07:57:44.173Z,100831.31
2023-03-29T08:00:16.301Z,100824.44
2023-03-29T08:02:44.658Z,100829.75
2023-03-29T08:05:17.534Z,100829.41
2023-03-29T08:07:47.640Z,100841.31
2023-03-29T08:10:16.930Z,100836.56
2023-03-29T08:12:45.273Z,100827.44
2023-03-29T08:15:13.093Z,100826.31
2023-03-29T08:17:41.204Z,100823.06
2023-03-29T08:20:10.863Z,100819.66
2023-03-29T08:22:37.845Z,100811.19
2023-03-29T08:25:05.495Z,100813.25
2023-03-29T08:27:32.167Z,100811.19
2023-03-29T08:29:58.518Z,100803.44
2023-03-29T08:32:25.077Z,100806.25
2023-03-29T08:34:51.638Z,100807.63
2023-03-29T08:37:19.031Z,100805.03
2023-03-29T08:39:45.881Z,100803.25
2023-03-29T08:42:29.634Z,100793.66
2023-03-29T08:45:26.568Z,100802.66
2023-03-29T08:48:15.875Z,100804.34
2023-03-29T08:50:57.130Z,100813.13
2023-03-29T08:53:29.094Z,100817.03
2023-03-29T08:55:58.888Z,100817.88
2023-03-29T08:58:29.003Z,100823.63
2023-03-29T09:00:58.201Z,100822.66
2023-03-29T09:03:45.785Z,100826.78
2023-03-29T09:06:12.812Z,100819.97
2023-03-29T09:08:47.458Z,100818.13
2023-03-29T09:11:23.040Z,100817.53
2023-03-29T09:13:58.442Z,100820.09
2023-03-29T09:16:52.120Z,100815.59
2023-03-29T09:19:37.104Z,100812.81
2023-03-29T09:22:06.329Z,100813.78
2023-03-29T09:24:44.918Z,100818.16
2023-03-29T09:27:23.834Z,100812.19
2023-03-29T09:30:01.947Z,100817.31
2023-03-29T09:32:32.866Z,100804.75
2023-03-29T09:35:22.582Z,100801.00
2023-03-29T09:37:51.463Z,100800.25
2023-03-29T09:40:24.562Z,100798.63
2023-03-29T09:42:54.034Z,100803.22
2023-03-29T09:45:20.445Z,100805.53
2023-03-29T09:47:55.481Z,100806.97
2023-03-29T09:50:34.223Z,100811.78
2023-03-29T09:53:01.314Z,100801.63
2023-03-29T09:55:33.668Z,100799.88
2023-03-29T09:58:02.064Z,100810.00
2023-03-29T10:00:28.457Z,100807.16
2023-03-29T10:02:58.738Z,100809.91
2023-03-29T10:05:29.388Z,100814.78
2023-03-29T10:07:59.700Z,100801.97
2023-03-29T10:10:35.250Z,100794.88
2023-03-29T10:13:06.900Z,100785.47
2023-03-29T10:15:33.432Z,100770.25
2023-03-29T10:18:03.498Z,100786.09
2023-03-29T10:20:30.066Z,100780.28
2023-03-29T10:22:58.794Z,100786.03
2023-03-29T10:25:33.845Z,100769.16
2023-03-29T10:28:08.213Z,100770.91
2023-03-29T10:30:37.151Z,100749.81
2023-03-29T10:33:03.960Z,100753.41
2023-03-29T10:35:37.994Z,100744.28
2023-03-29T10:38:09.850Z,100743.16
2023-03-29T10:40:47.018Z,100730.72
2023-03-29T10:43:19.082Z,100727.03
2023-03-29T10:45:49.987Z,100725.47
2023-03-29T10:48:17.759Z,100729.28
2023-03-29T10:50:52.826Z,100729.38
2023-03-29T10:53:30.282Z,100731.63
2023-03-29T10:56:16.069Z,100699.59
2023-03-29T10:59:00.277Z,100713.28
2023-03-29T11:01:42.637Z,100710.94
2023-03-29T11:04:33.062Z,100712.22
2023-03-29T11:07:30.466Z,100705.94
2023-03-29T11:10:30.734Z,100713.28
2023-03-29T11:13:15.148Z,100714.69
2023-03-29T11:16:12.662Z,100710.31
2023-03-29T11:19:03.375Z,100713.69
2023-03-29T11:21:59.683Z,100717.31
2023-03-29T11:24:45.437Z,100718.31
2023-03-29T11:27:14.493Z,100714.78
2023-03-29T11:29:52.727Z,100709.13
2023-03-29T11:32:31.354Z,100710.47
2023-03-29T11:35:01.511Z,100720.91
2023-03-29T11:37:37.248Z,100707.44
2023-03-29T11:40:51.354Z,100699.53
2023-03-29T11:43:32.727Z,100703.69
2023-03-29T11:46:03.976Z,100695.31
2023-03-29T11:48:46.049Z,100696.53
2023-03-29T11:51:25.759Z,100705.28
2023-03-29T11:54:11.073Z,100703.53
2023-03-29T11:56:47.631Z,100690.63
2023-03-29T11:59:55.790Z,100698.47
2023-03-29T12:02:32.464Z,100690.09
2023-03-29T12:05:05.416Z,100690.47
2023-03-29T12:07:37.114Z,100689.94
2023-03-29T12:10:14.436Z,100676.88
2023-03-29T12:12:46.448Z,100670.72
2023-03-29T12:15:20.270Z,100668.84
2023-03-29T12:18:02.442Z,100672.44
2023-03-29T12:20:33.520Z,100667.47
2023-03-29T12:23:00.644Z,100659.91
2023-03-29T12:25:37.970Z,100662.31
2023-03-29T12:28:18.066Z,100666.41
2023-03-29T12:30:55.853Z,100662.25
2023-03-29T12:33:50.483Z,100656.22
2023-03-29T12:36:43.852Z,100662.72
2023-03-29T12:39:19.097Z,100663.31
2023-03-29T12:41:48.924Z,100654.41
2023-03-29T12:44:17.458Z,100655.16
2023-03-29T12:46:44.103Z,100659.50
2023-03-29T12:49:21.226Z,100649.81
2023-03-29T12:51:48.114Z,100652.72
2023-03-29T12:54:19.679Z,100655.41
2023-03-29T12:56:51.940Z,100647.31
2023-03-29T12:59:27.417Z,100644.78
2023-03-29T13:02:14.206Z,100630.97
2023-03-29T13:04:46.935Z,100622.97
2023-03-29T13:07:22.328Z,100614.38
2023-03-29T13:09:52.101Z,100613.91
2023-03-29T13:12:33.398Z,100612.09
2023-03-29T13:15:02.464Z,100614.38
2023-03-29T13:17:50.817Z,100610.66
2023-03-29T13:20:29.392Z,100608.84
2023-03-29T13:23:22.574Z,100595.47
2023-03-29T13:26:00.752Z,100597.88
2023-03-29T13:28:58.555Z,100590.78
2023-03-29T13:31:56.079Z,100581.81
2023-03-29T13:35:00.645Z,100589.44
2023-03-29T13:37:53.972Z,100590.06
2023-03-29T13:40:29.374Z,100583.25
2023-03-29T13:43:08.606Z,100580.25
2023-03-29T13:45:36.090Z,100563.69
2023-03-29T13:48:24.787Z,100559.97
2023-03-29T13:51:01.956Z,100555.22
2023-03-29T13:53:33.691Z,100569.59
2023-03-29T13:56:01.116Z,100559.13
2023-03-29T13:58:37.919Z,100561.94
2023-03-29T14:01:16.377Z,100556.75
2023-03-29T14:03:46.182Z,100551.13
2023-03-29T14:06:16.503Z,100558.53
2023-03-29T14:08:44.392Z,100543.75
2023-03-29T14:11:24.416Z,100542.50
2023-03-29T14:14:06.756Z,100540.50
2023-03-29T14:16:37.192Z,100537.53
2023-03-29T14:19:07.525Z,100528.59
2023-03-29T14:21:33.869Z,100520.47
2023-03-29T14:24:01.897Z,100512.53
2023-03-29T14:26:34.340Z,100507.13
2023-03-29T14:29:02.339Z,100513.22
2023-03-29T14:31:35.626Z,100505.22
2023-03-29T14:34:11.214Z,100501.84
2023-03-29T14:36:38.677Z,100506.75
2023-03-29T14:39:12.871Z,100509.88
2023-03-29T14:41:41.663Z,100509.78
2023-03-29T14:44:08.276Z,100510.03
2023-03-29T14:46:36.279Z,100497.72
2023-03-29T14:49:03.731Z,100492.47
2023-03-29T14:51:31.277Z,100489.56
2023-03-29T14:54:00.209Z,100482.59
2023-03-29T14:56:27.078Z,100477.88
2023-03-29T14:58:56.903Z,100472.59
2023-03-29T15:01:25.749Z,100466.69
2023-03-29T15:04:11.372Z,100476.03
2023-03-29T15:06:40.898Z,100460.19
2023-03-29T15:09:15.808Z,100458.88
2023-03-29T15:11:50.254Z,100468.88
2023-03-29T15:14:19.092Z,100460.84
2023-03-29T15:16:47.379Z,100463.56
2023-03-29T15:19:19.644Z,100462.31
2023-03-29T15:21:49.154Z,100462.84
2023-03-29T15:24:31.858Z,100452.84
2023-03-29T15:27:01.316Z,100453.75
2023-03-29T15:29:46.175Z,100460.81
2023-03-29T15:32:23.819Z,100463.78
2023-03-29T15:35:09.208Z,100459.25
2023-03-29T15:37:35.960Z,100473.75
2023-03-29T15:40:09.601Z,100471.41
2023-03-29T15:42:36.543Z,100467.03
2023-03-29T15:45:06.136Z,100462.00
2023-03-29T15:47:32.476Z,100459.78
2023-03-29T15:49:58.852Z,100468.63
2023-03-29T15:52:25.262Z,100453.06
2023-03-29T15:54:51.867Z,100465.25
2023-03-29T15:57:18.719Z,100451.41
2023-03-29T15:59:45.341Z,100454.44
2023-03-29T16:02:16.380Z,100447.16
2023-03-29T16:04:43.459Z,100449.56
2023-03-29T16:07:14.872Z,100453.28
2023-03-29T16:09:42.027Z,100437.91
2023-03-29T16:12:10.143Z,100448.53
2023-03-29T16:14:36.745Z,100442.28
2023-03-29T16:17:03.873Z,100440.25
2023-03-29T16:19:31.200Z,100444.81
2023-03-29T16:21:59.342Z,100439.56
2023-03-29T16:24:28.384Z,100438.06
2023-03-29T16:26:56.450Z,100445.34
2023-03-29T16:29:24.581Z,100431.47
2023-03-29T16:31:52.482Z,100428.78
2023-03-29T16:34:19.971Z,100422.03
2023-03-29T16:36:47.769Z,100425.41
2023-03-29T16:39:14.736Z,100420.69
2023-03-29T16:41:42.182Z,100414.97
2023-03-29T16:44:13.855Z,100411.25
2023-03-29T16:46:40.356Z,100409.88
2023-03-29T16:49:07.870Z,100412.59
2023-03-29T16:51:34.216Z,100405.03
2023-03-29T16:54:00.659Z,100405.34
2023-03-29T16:56:28.323Z,100415.00
2023-03-29T16:58:54.744Z,100408.22
2023-03-29T17:01:22.536Z,100394.03
2023-03-29T17:03:48.922Z,100405.88
2023-03-29T17:06:15.563Z,100398.44
2023-03-29T17:08:42.370Z,100391.16
2023-03-29T17:11:09.331Z,100394.22
2023-03-29T17:13:37.231Z,100390.31
2023-03-29T17:16:04.516Z,100385.59
2023-03-29T17:18:31.237Z,100385.59
2023-03-29T17:20:58.686Z,100386.28
2023-03-29T17:23:25.851Z,100387.44
2023-03-29T17:25:54.491Z,100386.59
2023-03-29T17:28:20.934Z,100392.84
2023-03-29T17:30:47.765Z,100384.25
2023-03-29T17:33:14.324Z,100376.16
2023-03-29T17:35:42.898Z,100372.09
2023-03-29T17:38:09.234Z,100382.91
2023-03-29T17:40:35.789Z,100376.16
2023-03-29T17:43:02.196Z,100377.50
2023-03-29T17:45:28.579Z,100383.41
2023-03-29T17:47:55.022Z,100374.63
2023-03-29T17:50:21.575Z,100379.97
2023-03-29T17:52:47.969Z,100385.38
2023-03-29T17:55:14.379Z,100379.13
2023-03-29T17:57:41.735Z,100379.47
2023-03-29T18:00:12.236Z,100380.44
2023-03-29T18:02:39.928Z,100373.34
2023-03-29T18:05:09.255Z,100367.78
2023-03-29T18:07:36.570Z,100373.50
2023-03-29T18:10:03.574Z,100354.91
2023-03-29T18:12:30.324Z,100380.75
2023-03-29T18:14:56.888Z,100381.94
2023-03-29T18:17:24.477Z,100379.53
2023-03-29T18:19:51.364Z,100380.72
2023-03-29T18:22:18.511Z,100377.19
2023-03-29T18:24:46.403Z,100365.16
2023-03-29T18:27:13.038Z,100371.28
2023-03-29T18:29:39.395Z,100368.56
2023-03-29T18:32:06.014Z,100383.22
2023-03-29T18:34:33.304Z,100372.44
2023-03-29T18:36:59.838Z,100370.56
2023-03-29T18:39:27.228Z,100365.00
2023-03-29T18:41:53.625Z,100360.25
2023-03-29T18:44:21.741Z,100361.09
2023-03-29T18:46:48.321Z,100370.53
2023-03-29T18:49:14.761Z,100355.34
2023-03-29T18:51:42.106Z,100359.41
2023-03-29T18:54:08.951Z,100354.34
2023-03-29T18:56:36.000Z,100356.88
2023-03-29T18:59:06.012Z,100350.09
2023-03-29T19:01:33.080Z,100355.34
2023-03-29T19:03:59.462Z,100361.06
2023-03-29T19:06:26.048Z,100361.75
2023-03-29T19:08:53.888Z,100358.50
2023-03-29T19:11:20.322Z,100357.28
2023-03-29T19:13:50.031Z,100359.97
2023-03-29T19:16:17.297Z,100361.28
2023-03-29T19:18:43.844Z,100362.13
2023-03-29T19:21:10.546Z,100356.53
2023-03-29T19:23:37.259Z,100352.47
2023-03-29T19:26:05.866Z,100348.72
2023-03-29T19:28:33.743Z,100345.66
2023-03-29T19:31:01.993Z,100352.34
2023-03-29T19:33:29.244Z,100353.13
2023-03-29T19:35:56.198Z,100344.03
2023-03-29T19:38:22.650Z,100322.56
2023-03-29T19:40:50.812Z,100339.41
2023-03-29T19:43:17.951Z,100334.16
2023-03-29T19:45:48.397Z,100331.25
2023-03-29T19:48:21.934Z,100315.72
2023-03-29T19:50:49.238Z,100299.56
2023-03-29T19:53:15.614Z,100290.38
2023-03-29T19:55:42.647Z,100297.34
2023-03-29T19:58:09.270Z,100304.44
2023-03-29T20:00:38.586Z,100291.75
2023-03-29T20:03:05.285Z,100282.97
2023-03-29T20:05:31.904Z,100286.00
2023-03-29T20:07:58.284Z,100276.53
2023-03-29T20:10:24.605Z,100274.78
2023-03-29T20:12:51.124Z,100267.78
2023-03-29T20:15:17.852Z,100259.31
2023-03-29T20:17:44.862Z,100264.41
2023-03-29T20:20:13.594Z,100279.72
2023-03-29T20:22:42.060Z,100263.06
2023-03-29T20:25:09.377Z,100263.56
2023-03-29T20:27:35.906Z,100271.78
2023-03-29T20:30:03.604Z,100264.69
2023-03-29T20:32:30.074Z,100247.69
2023-03-29T20:34:56.489Z,100243.94
2023-03-29T20:37:22.992Z,100248.19
2023-03-29T20:39:49.684Z,100249.13
2023-03-29T20:42:16.197Z,100233.28
2023-03-29T20:44:50.246Z,100243.75
2023-03-29T20:47:19.950Z,100227.22
2023-03-29T20:49:46.337Z,100229.44
2023-03-29T20:52:17.198Z,100230.22
2023-03-29T20:54:45.044Z,100228.84
2023-03-29T20:57:16.985Z,100216.91
2023-03-29T20:59:44.269Z,100223.94
2023-03-29T21:02:14.614Z,100209.16
2023-03-29T21:04:41.926Z,100227.72
2023-03-29T21:07:08.274Z,100229.44
2023-03-29T21:09:35.992Z,100219.88
2023-03-29T21:12:02.873Z,100222.06
2023-03-29T21:14:30.260Z,100216.13
2023-03-29T21:16:56.634Z,100211.00
2023-03-29T21:19:24.169Z,100217.44
2023-03-29T21:21:52.095Z,100212.53
2023-03-29T21:24:19.006Z,100218.56
2023-03-29T21:26:46.290Z,100214.97
2023-03-29T21:29:13.085Z,100209.34
2023-03-29T21:31:39.621Z,100213.03
2023-03-29T21:34:05.992Z,100193.81
2023-03-29T21:36:32.362Z,100192.47
2023-03-29T21:38:58.649Z,100187.06
2023-03-29T21:41:25.077Z,100197.00
2023-03-29T21:43:51.429Z,100193.91
2023-03-29T21:46:17.811Z,100187.84
2023-03-29T21:48:44.164Z,100182.31
2023-03-29T21:51:10.552Z,100177.44
2023-03-29T21:53:36.974Z,100173.13
2023-03-29T21:56:03.749Z,100169.00
2023-03-29T21:58:30.250Z,100168.44
2023-03-29T22:00:57.139Z,100164.78
2023-03-29T22:03:23.721Z,100163.38
2023-03-29T22:06:02.343Z,100160.75
2023-03-29T22:08:29.503Z,100151.47
2023-03-29T22:10:57.092Z,100153.47
2023-03-29T22:13:28.450Z,100144.88
2023-03-29T22:15:59.348Z,100147.19
2023-03-29T22:18:28.055Z,100139.06
2023-03-29T22:20:54.550Z,100153.25
2023-03-29T22:23:20.911Z,100153.41
2023-03-29T22:25:47.366Z,100148.56
2023-03-29T22:28:14.288Z,100156.25
2023-03-29T22:30:40.957Z,100148.19
2023-03-29T22:33:07.413Z,100148.50
2023-03-29T22:35:35.137Z,100160.31
2023-03-29T22:38:01.618Z,100157.78
2023-03-29T22:40:28.206Z,100165.47
2023-03-29T22:42:54.491Z,100164.91
2023-03-29T22:45:20.830Z,100170.78
2023-03-29T22:47:47.214Z,100170.06
2023-03-29T22:50:13.729Z,100167.00
2023-03-29T22:52:40.293Z,100166.44
2023-03-29T22:55:07.022Z,100157.41
2023-03-29T22:57:33.365Z,100161.31
2023-03-29T23:00:00.599Z,100154.16
2023-03-29T23:02:26.946Z,100150.78
2023-03-29T23:04:53.289Z,100154.56
2023-03-29T23:07:19.621Z,100147.94
2023-03-29T23:09:46.039Z,100152.41
2023-03-29T23:12:12.368Z,100133.41
2023-03-29T23:14:42.427Z,100137.44
2023-03-29T23:17:10.141Z,100125.44
2023-03-29T23:19:37.796Z,100122.22
2023-03-29T23:22:04.134Z,100113.84
2023-03-29T23:24:30.500Z,100103.69
2023-03-29T23:26:57.466Z,100095.44
2023-03-29T23:29:26.127Z,100097.56
2023-03-29T23:31:53.684Z,100100.97
2023-03-29T23:34:20.180Z,100095.28
2023-03-29T23:36:46.540Z,100089.56
2023-03-29T23:39:12.930Z,100085.75
2023-03-29T23:41:40.037Z,100085.59
2023-03-29T23:44:06.383Z,100078.66
2023-03-29T23:46:32.764Z,100074.94
2023-03-29T23:48:59.088Z,100080.53
2023-03-29T23:51:28.133Z,100083.47
2023-03-29T23:53:55.775Z,100083.00
2023-03-29T23:56:22.819Z,100082.16
2023-03-29T23:58:49.640Z,100083.84
